Time;durP1;ratioP1;P1;durP2;ratioP2;P2;SDS_P1;SDS_P2;PMS_P1;PMS_P2;Temp;Humidity;BMP_temperature;BMP_pressure;BME280_temperature;BME280_humidity;BME280_pressure;Samples;Min_cycle;Max_cycle;Signal;HPM_P1;HPM_P2
2022/11/27 00:01:31;;;;;;;10.23;3.05;;;7.70;99.90;;;;;;4993537;28;20501;-42
2022/11/27 00:03:57;;;;;;;12.68;2.95;;;7.70;99.90;;;;;;4994241;28;20041;-41
2022/11/27 00:06:25;;;;;;;9.57;3.28;;;7.70;99.90;;;;;;4990043;28;20023;-41
2022/11/27 00:08:51;;;;;;;15.68;3.22;;;7.70;99.90;;;;;;4988257;28;20479;-42
2022/11/27 00:11:22;;;;;;;10.95;2.58;;;7.70;99.90;;;;;;4996196;28;20030;-42
2022/11/27 00:13:49;;;;;;;7.28;2.47;;;7.70;99.90;;;;;;4982734;28;20046;-40
2022/11/27 00:16:15;;;;;;;8.65;2.85;;;7.70;99.90;;;;;;4993849;28;20117;-44
2022/11/27 00:18:42;;;;;;;10.82;3.60;;;7.60;99.90;;;;;;4993916;28;20371;-43
2022/11/27 00:21:11;;;;;;;16.67;3.63;;;7.60;99.90;;;;;;4992730;28;20069;-48
2022/11/27 00:23:37;;;;;;;9.90;2.85;;;7.60;99.90;;;;;;4991200;28;20037;-44
2022/11/27 00:26:04;;;;;;;8.95;2.83;;;7.60;99.90;;;;;;4993158;28;20022;-42
2022/11/27 00:28:30;;;;;;;5.05;2.13;;;7.60;99.90;;;;;;4975391;28;20399;-47
2022/11/27 00:31:00;;;;;;;16.63;2.85;;;7.60;99.90;;;;;;4979075;28;20041;-42
2022/11/27 00:33:25;;;;;;;10.68;3.13;;;7.60;99.90;;;;;;4994488;28;20027;-47
2022/11/27 00:35:51;;;;;;;12.38;3.20;;;7.60;99.90;;;;;;4992421;28;20018;-48
2022/11/27 00:38:17;;;;;;;13.38;3.78;;;7.60;99.90;;;;;;4992825;28;20037;-43
2022/11/27 00:40:42;;;;;;;11.35;2.40;;;7.50;99.90;;;;;;4994993;28;20466;-43
2022/11/27 00:43:08;;;;;;;10.60;3.45;;;7.60;99.90;;;;;;4998387;28;20026;-43
2022/11/27 00:45:34;;;;;;;12.68;3.45;;;7.50;99.90;;;;;;4974629;28;20034;-42
2022/11/27 00:48:03;;;;;;;13.38;3.05;;;7.50;99.90;;;;;;4983732;28;20057;-41
2022/11/27 00:50:31;;;;;;;14.77;3.15;;;7.50;99.90;;;;;;4975484;28;20434;-44
2022/11/27 00:52:59;;;;;;;10.57;3.35;;;7.60;99.90;;;;;;4989002;28;20049;-41
2022/11/27 00:55:25;;;;;;;9.52;2.88;;;7.60;99.90;;;;;;4989469;28;20026;-37
2022/11/27 00:57:51;;;;;;;9.57;2.50;;;7.50;99.90;;;;;;4991671;28;20489;-43
2022/11/27 01:00:17;;;;;;;10.93;2.97;;;7.60;99.90;;;;;;4986103;28;20053;-41
2022/11/27 01:02:43;;;;;;;7.63;2.28;;;7.50;99.90;;;;;;4990709;28;20077;-41
2022/11/27 01:05:09;;;;;;;12.48;2.42;;;7.50;99.90;;;;;;4989054;28;20482;-42
2022/11/27 01:07:35;;;;;;;5.55;2.97;;;7.60;99.90;;;;;;4990626;28;20070;-38
2022/11/27 01:10:03;;;;;;;7.68;3.13;;;7.60;99.90;;;;;;4984444;28;20018;-39
2022/11/27 01:12:29;;;;;;;8.98;2.53;;;7.60;99.90;;;;;;4996896;28;20534;-42
2022/11/27 01:14:55;;;;;;;7.10;2.10;;;7.60;99.90;;;;;;4993189;28;20073;-37
2022/11/27 01:17:20;;;;;;;6.28;2.70;;;7.60;99.90;;;;;;4993794;28;20034;-47
2022/11/27 01:19:46;;;;;;;10.13;2.50;;;7.60;99.90;;;;;;4991610;28;20026;-41
2022/11/27 01:22:11;;;;;;;8.60;2.70;;;7.60;99.90;;;;;;4982804;28;20047;-47
2022/11/27 01:24:37;;;;;;;7.97;3.22;;;7.60;99.90;;;;;;4976739;28;20022;-42
2022/11/27 01:27:03;;;;;;;3.17;2.20;;;7.60;99.90;;;;;;4994368;28;20025;-42
2022/11/27 01:29:28;;;;;;;10.05;3.05;;;7.60;99.90;;;;;;4995408;28;20148;-44
2022/11/27 01:31:54;;;;;;;12.60;3.38;;;7.70;99.90;;;;;;4993877;28;20502;-41
2022/11/27 01:34:20;;;;;;;12.43;2.85;;;7.70;99.90;;;;;;4994683;28;20517;-41
2022/11/27 01:36:45;;;;;;;9.25;2.22;;;7.70;99.90;;;;;;4992691;28;20030;-42
2022/11/27 01:39:22;;;;;;;11.95;2.97;;;7.60;99.90;;;;;;4984867;28;20019;-41
2022/11/27 01:41:48;;;;;;;10.20;2.77;;;7.60;99.90;;;;;;4990370;28;20383;-46
2022/11/27 01:44:23;;;;;;;10.55;2.35;;;7.60;99.90;;;;;;4992681;28;20030;-42
2022/11/27 01:47:00;;;;;;;6.78;2.47;;;7.70;99.90;;;;;;4993960;28;20479;-37
2022/11/27 01:49:42;;;;;;;14.00;2.38;;;7.60;99.90;;;;;;4992464;28;20470;-34
2022/11/27 01:52:18;;;;;;;6.60;2.58;;;7.60;99.90;;;;;;4993695;28;20398;-43
2022/11/27 01:54:53;;;;;;;7.22;2.47;;;7.60;99.90;;;;;;4993145;28;20029;-40
2022/11/27 01:57:25;;;;;;;11.18;4.53;;;7.60;99.90;;;;;;4993227;28;20467;-37
2022/11/27 01:59:53;;;;;;;10.55;2.42;;;7.60;99.90;;;;;;4992046;28;20471;-36
2022/11/27 02:02:18;;;;;;;6.22;2.40;;;7.60;99.90;;;;;;4992478;28;20025;-35
2022/11/27 02:04:44;;;;;;;7.30;2.25;;;7.50;99.90;;;;;;4993214;28;20034;-38
2022/11/27 02:07:10;;;;;;;10.55;2.88;;;7.50;99.90;;;;;;4975659;28;20494;-41
2022/11/27 02:09:35;;;;;;;8.18;2.75;;;7.50;99.90;;;;;;4992626;28;20034;-37
2022/11/27 02:12:05;;;;;;;14.85;2.58;;;7.50;99.90;;;;;;4995047;28;20117;-40
2022/11/27 02:15:09;;;;;;;6.00;1.92;;;7.50;99.90;;;;;;4992187;28;20069;-36
2022/11/27 02:18:02;;;;;;;12.55;2.80;;;7.50;99.90;;;;;;4969194;28;20038;-38
2022/11/27 02:20:43;;;;;;;6.60;2.10;;;7.50;99.90;;;;;;4962736;28;20042;-40
2022/11/27 02:23:33;;;;;;;7.63;2.50;;;7.50;99.90;;;;;;4992712;28;20081;-33
2022/11/27 02:26:02;;;;;;;12.02;2.70;;;7.50;99.90;;;;;;4991481;28;20033;-37
2022/11/27 02:29:01;;;;;;;9.25;2.22;;;7.50;99.90;;;;;;4989288;28;20030;-38
2022/11/27 02:31:39;;;;;;;4.95;2.13;;;7.50;99.90;;;;;;4977641;28;20022;-38
2022/11/27 02:34:09;;;;;;;;;;;7.40;99.90;;;;;;4991311;28;20034;-37
2022/11/27 02:36:39;;;;;;;5.80;2.08;;;7.40;99.90;;;;;;4993179;28;19914;-40
2022/11/27 02:39:10;;;;;;;10.10;2.03;;;7.50;99.90;;;;;;4993194;28;20030;-38
2022/11/27 02:41:44;;;;;;;9.20;2.17;;;7.50;99.90;;;;;;4992273;28;20109;-40
2022/11/27 02:44:10;;;;;;;6.65;1.77;;;7.50;99.90;;;;;;4975777;28;20053;-36
2022/11/27 02:46:37;;;;;;;4.05;1.70;;;7.50;99.90;;;;;;4991663;28;20512;-38
2022/11/27 02:49:08;;;;;;;3.58;1.73;;;7.60;99.90;;;;;;4993014;28;20022;-38
2022/11/27 02:51:48;;;;;;;9.15;2.10;;;7.50;99.90;;;;;;4992201;28;20077;-35
2022/11/27 02:54:22;;;;;;;7.63;1.55;;;7.50;99.90;;;;;;4991139;28;20030;-38
2022/11/27 02:56:50;;;;;;;3.85;1.88;;;7.50;99.90;;;;;;4972732;28;20379;-35
2022/11/27 02:59:17;;;;;;;8.18;1.98;;;7.50;99.90;;;;;;4992972;28;20437;-40
2022/11/27 03:01:48;;;;;;;7.23;2.27;;;7.60;99.90;;;;;;4991012;28;20474;-44
2022/11/27 03:04:19;;;;;;;4.25;1.52;;;7.60;99.90;;;;;;4993088;28;20508;-41
2022/11/27 03:06:51;;;;;;;6.70;2.45;;;7.60;99.90;;;;;;4992251;28;20474;-41
2022/11/27 03:09:23;;;;;;;11.40;2.80;;;7.70;99.90;;;;;;4993216;28;20045;-42
2022/11/27 03:11:49;;;;;;;2.72;1.80;;;7.70;99.90;;;;;;4996013;28;20057;-41
2022/11/27 03:14:15;;;;;;;7.82;1.92;;;7.70;99.90;;;;;;5012523;28;20512;-41
2022/11/27 03:16:59;;;;;;;3.20;1.70;;;7.70;99.90;;;;;;5004973;28;20033;-46
2022/11/27 03:19:39;;;;;;;7.40;1.63;;;7.70;99.90;;;;;;4992806;28;20536;-44
2022/11/27 03:22:05;;;;;;;4.00;2.13;;;7.70;99.90;;;;;;4992193;28;20060;-47
2022/11/27 03:24:33;;;;;;;11.60;2.42;;;7.70;99.90;;;;;;4992952;28;20023;-44
2022/11/27 03:27:02;;;;;;;6.47;2.05;;;7.60;99.90;;;;;;4994228;28;20034;-41
2022/11/27 03:29:57;;;;;;;8.52;2.05;;;7.70;99.90;;;;;;4996334;28;20022;-49
2022/11/27 03:32:24;;;;;;;5.07;2.20;;;7.70;99.90;;;;;;4990683;28;20069;-35
2022/11/27 03:34:50;;;;;;;5.82;1.75;;;7.70;99.90;;;;;;4976918;28;20027;-41
2022/11/27 03:37:16;;;;;;;4.90;2.20;;;7.80;99.90;;;;;;4976683;28;20419;-41
2022/11/27 03:39:42;;;;;;;13.70;3.45;;;7.80;99.90;;;;;;4976598;28;20034;-43
2022/11/27 03:42:29;;;;;;;9.48;1.85;;;7.80;99.90;;;;;;4991045;28;20026;-43
2022/11/27 03:45:15;;;;;;;5.75;2.38;;;7.80;99.90;;;;;;4993626;28;20529;-43
2022/11/27 03:48:07;;;;;;;3.25;1.25;;;7.70;99.90;;;;;;4994855;28;20558;-40
2022/11/27 03:50:54;;;;;;;3.35;2.63;;;7.60;99.90;;;;;;4995282;28;20166;-42
2022/11/27 03:53:22;;;;;;;3.90;1.63;;;7.60;99.90;;;;;;4996013;28;20023;-42
2022/11/27 03:56:02;;;;;;;5.40;2.15;;;7.60;99.90;;;;;;4993805;28;20034;-39
2022/11/27 03:58:41;;;;;;;7.80;1.75;;;7.70;99.90;;;;;;4995824;28;20111;-43
2022/11/27 04:01:11;;;;;;;8.13;2.00;;;7.70;99.90;;;;;;4995008;28;20069;-43
2022/11/27 04:03:37;;;;;;;8.35;2.67;;;7.70;99.90;;;;;;4992976;28;20069;-41
2022/11/27 04:06:03;;;;;;;10.15;2.00;;;7.70;99.90;;;;;;4995666;28;20364;-36
2022/11/27 04:08:29;;;;;;;10.55;2.80;;;7.70;99.90;;;;;;4995718;28;20027;-38
2022/11/27 04:10:54;;;;;;;5.43;2.15;;;7.70;99.90;;;;;;4995108;28;20410;-40
2022/11/27 04:13:20;;;;;;;7.28;2.22;;;7.70;99.90;;;;;;5000353;28;20054;-38
2022/11/27 04:15:45;;;;;;;18.17;2.13;;;7.70;99.90;;;;;;4994581;28;20027;-35
2022/11/27 04:18:11;;;;;;;9.02;1.98;;;7.70;99.90;;;;;;4994368;28;20030;-39
2022/11/27 04:20:37;;;;;;;5.13;1.75;;;7.80;99.90;;;;;;4995133;28;20524;-38
2022/11/27 04:23:02;;;;;;;7.88;2.13;;;7.70;99.90;;;;;;4994724;28;20029;-38
2022/11/27 04:25:28;;;;;;;4.53;1.85;;;7.70;99.90;;;;;;4995568;28;20022;-37
2022/11/27 04:27:53;;;;;;;4.95;1.70;;;7.70;99.90;;;;;;4995305;28;20482;-39
2022/11/27 04:30:19;;;;;;;4.15;1.88;;;7.70;99.90;;;;;;4994495;28;20034;-49
2022/11/27 04:32:45;;;;;;;21.13;2.17;;;7.70;99.90;;;;;;4976322;28;20467;-36
2022/11/27 04:35:11;;;;;;;10.00;3.60;;;7.70;99.90;;;;;;4995133;28;20050;-37
2022/11/27 04:37:37;;;;;;;3.90;2.25;;;7.80;99.90;;;;;;4995648;28;20497;-41
2022/11/27 04:40:03;;;;;;;7.30;2.75;;;7.70;99.90;;;;;;4994438;28;20018;-41
2022/11/27 04:42:29;;;;;;;7.18;2.63;;;7.70;99.90;;;;;;4995465;28;20382;-42
2022/11/27 04:44:54;;;;;;;6.20;2.38;;;7.70;99.90;;;;;;4994455;28;20026;-41
2022/11/27 04:47:20;;;;;;;6.28;2.15;;;7.70;99.90;;;;;;4994976;28;20105;-43
2022/11/27 04:49:46;;;;;;;5.38;2.35;;;7.70;99.90;;;;;;4993692;28;20446;-43
2022/11/27 04:52:11;;;;;;;7.55;2.75;;;7.70;99.90;;;;;;4994896;28;20023;-36
2022/11/27 04:54:37;;;;;;;10.13;3.28;;;7.70;99.90;;;;;;4994899;28;20030;-36
2022/11/27 04:57:03;;;;;;;9.18;2.40;;;7.80;99.90;;;;;;4994642;28;20022;-37
2022/11/27 04:59:28;;;;;;;8.20;1.95;;;7.70;99.90;;;;;;4993857;28;20077;-38
2022/11/27 05:01:54;;;;;;;7.00;2.90;;;7.60;99.90;;;;;;4994569;28;20076;-34
2022/11/27 05:04:20;;;;;;;7.35;2.53;;;7.60;99.90;;;;;;4991385;28;20073;-37
2022/11/27 05:06:46;;;;;;;7.47;2.53;;;7.60;99.90;;;;;;4993919;28;20037;-36
2022/11/27 05:09:12;;;;;;;6.80;2.83;;;7.60;99.90;;;;;;4992653;28;20434;-47
2022/11/27 05:11:38;;;;;;;6.10;2.58;;;7.60;99.90;;;;;;4995460;28;20026;-36
2022/11/27 05:14:16;;;;;;;8.57;2.53;;;7.60;99.90;;;;;;5003669;28;21179;-35
2022/11/27 05:16:55;;;;;;;9.93;2.85;;;7.60;99.90;;;;;;4993736;28;20132;-44
2022/11/27 05:19:22;;;;;;;7.70;2.72;;;7.60;99.90;;;;;;4991386;28;20514;-44
2022/11/27 05:21:49;;;;;;;6.78;2.20;;;7.60;99.90;;;;;;4992166;28;20388;-38
2022/11/27 05:24:16;;;;;;;6.85;2.88;;;7.60;99.90;;;;;;4994208;28;20482;-39
2022/11/27 05:26:43;;;;;;;3.92;2.67;;;7.60;99.90;;;;;;4993829;28;20032;-36
2022/11/27 05:29:10;;;;;;;4.55;2.85;;;7.60;99.90;;;;;;4993319;28;20039;-35
2022/11/27 05:31:36;;;;;;;5.45;2.65;;;7.60;99.90;;;;;;4994169;28;20023;-34
2022/11/27 05:34:02;;;;;;;8.23;2.60;;;7.60;99.90;;;;;;4982049;28;20026;-40
2022/11/27 05:36:28;;;;;;;6.18;2.80;;;7.50;99.90;;;;;;4990457;28;20451;-44
2022/11/27 05:38:53;;;;;;;13.32;3.95;;;7.50;99.90;;;;;;4993154;28;20097;-42
2022/11/27 05:41:20;;;;;;;5.68;2.33;;;7.40;99.90;;;;;;4993345;28;20030;-44
2022/11/27 05:43:45;;;;;;;3.15;2.25;;;7.40;99.90;;;;;;4992539;28;20517;-44
2022/11/27 05:46:13;;;;;;;5.28;2.60;;;7.30;99.90;;;;;;4965985;28;20055;-45
2022/11/27 05:48:39;;;;;;;7.93;2.88;;;7.30;99.90;;;;;;4987515;28;20053;-42
2022/11/27 05:51:05;;;;;;;8.68;2.33;;;7.30;99.90;;;;;;4990656;28;20030;-38
2022/11/27 05:53:31;;;;;;;9.93;2.88;;;7.30;99.90;;;;;;4991276;28;20081;-40
2022/11/27 05:56:01;;;;;;;4.30;2.05;;;7.30;99.90;;;;;;4993062;28;20034;-37
2022/11/27 05:58:27;;;;;;;5.20;2.38;;;7.30;99.90;;;;;;4990095;28;20068;-38
2022/11/27 06:00:53;;;;;;;7.53;3.05;;;7.30;99.90;;;;;;4992810;28;20054;-42
2022/11/27 06:03:18;;;;;;;10.02;2.25;;;7.30;99.90;;;;;;4992233;28;20382;-41
2022/11/27 06:05:44;;;;;;;8.38;2.90;;;7.30;99.90;;;;;;4987977;28;20105;-41
2022/11/27 06:08:09;;;;;;;9.02;2.85;;;7.20;99.90;;;;;;4992943;28;20034;-31
2022/11/27 06:10:37;;;;;;;3.65;1.90;;;7.20;99.90;;;;;;4992800;28;20478;-38
2022/11/27 06:13:03;;;;;;;;;;;7.20;99.90;;;;;;4994496;28;20034;-41
2022/11/27 06:15:29;;;;;;;4.53;2.50;;;7.20;99.90;;;;;;4992051;28;20285;-40
2022/11/27 06:17:54;;;;;;;9.02;2.28;;;7.20;99.90;;;;;;4987054;28;20069;-40
2022/11/27 06:20:20;;;;;;;7.70;2.72;;;7.20;99.90;;;;;;4989626;28;20525;-39
2022/11/27 06:22:46;;;;;;;7.35;2.63;;;7.20;99.90;;;;;;4993416;28;20026;-39
2022/11/27 06:25:11;;;;;;;3.70;1.92;;;7.20;99.90;;;;;;4974749;28;20482;-38
2022/11/27 06:27:37;;;;;;;6.82;2.47;;;7.20;99.90;;;;;;4991317;28;20142;-40
2022/11/27 06:30:04;;;;;;;5.50;2.80;;;7.20;99.90;;;;;;4991409;28;20446;-39
2022/11/27 06:32:29;;;;;;;6.55;2.55;;;7.20;99.90;;;;;;4989667;28;20037;-42
2022/11/27 06:34:55;;;;;;;7.20;2.50;;;7.20;99.90;;;;;;4990024;28;20101;-38
2022/11/27 06:37:21;;;;;;;3.75;2.20;;;7.20;99.90;;;;;;4990785;28;20027;-41
2022/11/27 06:39:49;;;;;;;9.75;2.38;;;7.20;99.90;;;;;;4973169;28;20031;-40
2022/11/27 06:42:15;;;;;;;6.30;2.42;;;7.20;99.90;;;;;;4992027;28;20026;-38
2022/11/27 06:44:41;;;;;;;6.75;2.88;;;7.20;99.90;;;;;;4991853;28;20033;-34
2022/11/27 06:47:07;;;;;;;11.50;2.30;;;7.20;99.90;;;;;;4992781;28;20394;-40
2022/11/27 06:49:33;;;;;;;8.23;2.35;;;7.10;99.90;;;;;;4992553;28;20022;-39
2022/11/27 06:51:59;;;;;;;6.55;2.88;;;7.10;99.90;;;;;;4992418;28;20157;-47
2022/11/27 06:54:25;;;;;;;10.30;2.42;;;7.00;99.90;;;;;;4993024;28;20490;-44
2022/11/27 06:56:51;;;;;;;10.73;2.92;;;7.00;99.90;;;;;;4990635;28;20027;-43
2022/11/27 06:59:17;;;;;;;7.53;2.20;;;7.00;99.90;;;;;;4993150;28;20027;-43
2022/11/27 07:01:43;;;;;;;7.00;2.80;;;7.00;99.90;;;;;;4994953;28;20118;-43
2022/11/27 07:04:13;;;;;;;12.35;3.08;;;7.00;99.90;;;;;;4978100;28;20483;-43
2022/11/27 07:06:39;;;;;;;10.45;3.33;;;7.00;99.90;;;;;;4979438;28;20498;-45
2022/11/27 07:09:06;;;;;;;6.00;2.42;;;7.00;99.90;;;;;;4979240;28;20128;-44
2022/11/27 07:11:33;;;;;;;4.18;2.13;;;7.00;99.90;;;;;;4978115;28;20038;-46
2022/11/27 07:14:02;;;;;;;8.20;2.40;;;7.00;99.90;;;;;;4996763;28;20029;-50
2022/11/27 07:16:31;;;;;;;3.72;2.15;;;6.90;99.90;;;;;;4996773;28;20109;-43
2022/11/27 07:18:58;;;;;;;;;;;6.90;99.90;;;;;;4996650;28;20108;-45
2022/11/27 07:21:24;;;;;;;9.70;2.50;;;6.90;99.90;;;;;;4995264;28;19925;-41
2022/11/27 07:23:50;;;;;;;13.35;2.47;;;6.90;99.90;;;;;;4960372;28;20121;-44
2022/11/27 07:26:25;;;;;;;6.30;2.45;;;6.90;99.90;;;;;;4983915;28;20101;-42
2022/11/27 07:28:51;;;;;;;3.13;2.13;;;6.90;99.90;;;;;;4996051;28;20573;-44
2022/11/27 07:31:22;;;;;;;5.72;2.35;;;7.00;99.90;;;;;;4996399;28;20022;-44
2022/11/27 07:33:48;;;;;;;3.85;2.75;;;6.90;99.90;;;;;;4977510;28;20506;-42
2022/11/27 07:36:17;;;;;;;6.95;2.78;;;6.90;99.90;;;;;;4995108;28;20050;-45
2022/11/27 07:38:43;;;;;;;10.48;3.63;;;6.90;99.90;;;;;;4996232;28;20026;-42
2022/11/27 07:41:09;;;;;;;6.05;3.00;;;6.90;99.90;;;;;;4996208;28;20029;-48
2022/11/27 07:43:35;;;;;;;9.82;3.70;;;6.90;99.90;;;;;;4995637;28;20026;-44
2022/11/27 07:46:06;;;;;;;9.23;2.35;;;7.00;99.90;;;;;;4978577;28;20410;-42
2022/11/27 07:48:32;;;;;;;8.90;2.40;;;6.90;99.90;;;;;;5013755;28;20026;-45
2022/11/27 07:50:58;;;;;;;7.68;2.78;;;7.00;99.90;;;;;;5003147;28;20085;-43
2022/11/27 07:53:23;;;;;;;7.18;2.65;;;7.00;99.90;;;;;;4995390;28;20034;-44
2022/11/27 07:55:49;;;;;;;7.32;2.17;;;7.00;99.90;;;;;;4996037;28;20030;-43
2022/11/27 07:58:15;;;;;;;6.07;2.42;;;7.00;99.90;;;;;;4992993;28;20030;-41
2022/11/27 08:00:41;;;;;;;9.20;2.70;;;7.00;99.90;;;;;;4995710;28;20026;-42
2022/11/27 08:03:06;;;;;;;6.05;2.88;;;7.00;99.90;;;;;;4993379;28;20022;-42
2022/11/27 08:05:36;;;;;;;7.20;2.33;;;7.00;99.90;;;;;;4995415;28;20038;-50
2022/11/27 08:08:03;;;;;;;8.77;2.42;;;7.00;99.90;;;;;;4967970;28;20074;-43
2022/11/27 08:10:30;;;;;;;9.77;2.50;;;7.00;99.90;;;;;;4978510;28;20133;-43
2022/11/27 08:12:57;;;;;;;7.40;3.13;;;7.10;99.90;;;;;;4992455;28;20513;-41
2022/11/27 08:15:22;;;;;;;8.10;2.83;;;7.10;99.90;;;;;;4994227;28;20026;-44
2022/11/27 08:17:48;;;;;;;6.03;2.08;;;7.10;99.90;;;;;;4995335;28;20033;-42
2022/11/27 08:20:14;;;;;;;7.60;2.63;;;7.10;99.90;;;;;;4997720;28;20023;-45
2022/11/27 08:22:40;;;;;;;10.27;2.90;;;7.20;99.90;;;;;;5002933;28;20026;-43
2022/11/27 08:25:06;;;;;;;7.55;2.05;;;7.20;99.90;;;;;;4995537;28;20026;-41
2022/11/27 08:27:32;;;;;;;13.52;2.15;;;7.10;99.90;;;;;;4977558;28;20075;-38
2022/11/27 08:29:59;;;;;;;5.55;2.40;;;7.20;99.90;;;;;;4995635;28;20047;-41
2022/11/27 08:32:24;;;;;;;4.95;2.17;;;7.20;99.90;;;;;;4994569;28;20034;-37
2022/11/27 08:34:50;;;;;;;7.32;2.47;;;7.20;99.90;;;;;;4995329;28;20089;-37
2022/11/27 08:37:15;;;;;;;9.30;2.00;;;7.20;99.90;;;;;;4994867;28;20034;-41
2022/11/27 08:39:41;;;;;;;6.50;2.75;;;7.20;99.90;;;;;;4992696;28;20032;-39
2022/11/27 08:42:07;;;;;;;5.03;2.17;;;7.20;99.90;;;;;;4990076;28;20474;-41
2022/11/27 08:44:32;;;;;;;6.78;2.13;;;7.20;99.90;;;;;;4999139;28;20525;-41
2022/11/27 08:46:58;;;;;;;10.23;3.40;;;7.20;99.90;;;;;;4998813;28;20036;-41
2022/11/27 08:49:24;;;;;;;5.88;2.38;;;7.20;99.90;;;;;;5014765;28;20038;-39
2022/11/27 08:51:49;;;;;;;12.15;2.47;;;7.20;99.90;;;;;;5003194;28;20043;-31
2022/11/27 08:54:15;;;;;;;3.45;2.17;;;7.30;99.90;;;;;;4977196;28;20100;-37
2022/11/27 08:56:40;;;;;;;9.98;2.30;;;7.30;99.90;;;;;;4993500;28;20029;-40
2022/11/27 08:59:06;;;;;;;11.52;2.80;;;7.20;99.90;;;;;;4993550;28;20026;-35
2022/11/27 09:01:32;;;;;;;7.45;2.78;;;7.30;99.90;;;;;;4991969;28;20027;-38
2022/11/27 09:03:58;;;;;;;6.65;2.05;;;7.20;99.90;;;;;;4993927;28;20494;-35
2022/11/27 09:06:28;;;;;;;6.45;2.22;;;7.30;99.90;;;;;;4992580;28;20061;-54
2022/11/27 09:09:01;;;;;;;4.63;2.53;;;7.30;99.90;;;;;;4993108;28;20034;-37
2022/11/27 09:11:28;;;;;;;7.00;2.78;;;7.30;99.90;;;;;;4994850;28;20027;-38
2022/11/27 09:13:54;;;;;;;8.75;2.92;;;7.30;99.90;;;;;;4994408;28;20023;-42
2022/11/27 09:16:21;;;;;;;11.00;3.15;;;7.20;99.90;;;;;;4993364;28;20029;-37
2022/11/27 09:18:49;;;;;;;8.82;2.78;;;7.30;99.90;;;;;;4993557;28;20542;-48
2022/11/27 09:21:17;;;;;;;7.70;2.45;;;7.30;99.90;;;;;;4976993;28;20076;-41
2022/11/27 09:23:43;;;;;;;8.77;2.53;;;7.30;99.90;;;;;;4993246;28;20029;-39
2022/11/27 09:26:12;;;;;;;7.18;2.20;;;7.40;99.90;;;;;;4993720;28;20545;-39
2022/11/27 09:28:39;;;;;;;7.75;2.50;;;7.40;99.90;;;;;;4982030;28;20541;-40
2022/11/27 09:31:06;;;;;;;9.60;2.58;;;7.40;99.90;;;;;;5010066;28;20034;-37
2022/11/27 09:33:33;;;;;;;5.18;2.92;;;7.40;99.90;;;;;;5013798;28;20030;-39
2022/11/27 09:36:04;;;;;;;4.63;2.23;;;7.40;99.90;;;;;;4995727;28;20482;-36
2022/11/27 09:38:30;;;;;;;8.18;2.83;;;7.40;99.90;;;;;;4993882;28;20277;-36
2022/11/27 09:41:02;;;;;;;5.75;2.38;;;7.40;99.90;;;;;;4976499;28;20057;-35
2022/11/27 09:43:33;;;;;;;6.35;2.72;;;7.40;99.90;;;;;;5009479;28;20508;-40
2022/11/27 09:46:07;;;;;;;8.60;2.40;;;7.50;99.90;;;;;;5013614;28;20498;-37
2022/11/27 09:48:38;;;;;;;4.22;2.38;;;7.50;99.90;;;;;;4982258;28;20421;-40
2022/11/27 09:51:34;;;;;;;6.45;2.70;;;7.50;99.90;;;;;;5002173;28;20057;-34
2022/11/27 09:54:06;;;;;;;10.48;4.10;;;7.50;99.90;;;;;;4987926;28;20046;-38
2022/11/27 09:56:34;;;;;;;8.77;3.00;;;7.50;99.90;;;;;;5000088;28;20556;-34
2022/11/27 09:59:20;;;;;;;12.57;3.03;;;7.60;99.90;;;;;;4993520;28;20050;-36
2022/11/27 10:01:46;;;;;;;7.18;3.83;;;7.60;99.90;;;;;;4990250;28;20026;-39
2022/11/27 10:04:15;;;;;;;7.47;3.05;;;7.60;99.90;;;;;;4992869;28;20014;-39
2022/11/27 10:06:53;;;;;;;10.45;3.15;;;7.60;99.90;;;;;;4993648;28;20076;-35
2022/11/27 10:09:58;;;;;;;4.45;2.90;;;7.60;99.90;;;;;;4992771;28;20097;-38
2022/11/27 10:13:11;;;;;;;8.35;3.08;;;7.60;99.90;;;;;;4993550;28;20018;-35
2022/11/27 10:16:03;;;;;;;13.15;2.83;;;7.70;99.90;;;;;;4920453;29;20043;-40
2022/11/27 10:18:47;;;;;;;5.32;2.83;;;7.60;99.90;;;;;;4909401;29;20046;-39
2022/11/27 10:21:12;;;;;;;6.40;2.63;;;7.70;99.90;;;;;;4981922;28;20498;-40
2022/11/27 10:23:42;;;;;;;5.75;2.85;;;7.70;99.90;;;;;;4993457;28;20041;-39
2022/11/27 10:26:39;;;;;;;15.70;2.88;;;7.80;99.90;;;;;;4992346;28;20038;-36
2022/11/27 10:29:38;;;;;;;5.07;3.00;;;7.70;99.90;;;;;;4992360;28;20057;-34
2022/11/27 10:32:13;;;;;;;8.35;2.88;;;7.70;99.90;;;;;;4991961;28;20038;-40
2022/11/27 10:35:00;;;;;;;13.52;2.72;;;7.80;99.90;;;;;;4990171;28;20033;-38
2022/11/27 10:37:35;;;;;;;7.68;2.78;;;7.80;99.90;;;;;;4992622;28;20023;-38
2022/11/27 10:40:07;;;;;;;4.20;2.33;;;7.80;99.90;;;;;;5008718;28;20035;-38
2022/11/27 10:42:38;;;;;;;7.15;3.38;;;7.90;99.90;;;;;;4998564;28;20443;-36
2022/11/27 10:45:07;;;;;;;6.93;3.17;;;7.90;99.90;;;;;;5006987;28;20026;-36
2022/11/27 10:47:33;;;;;;;7.63;2.90;;;7.90;99.90;;;;;;5001177;28;20026;-39
2022/11/27 10:49:58;;;;;;;9.00;2.72;;;7.90;99.90;;;;;;4993556;28;20038;-38
2022/11/27 10:52:25;;;;;;;5.60;2.75;;;7.90;99.90;;;;;;4988928;28;20077;-40
2022/11/27 10:55:16;;;;;;;8.93;3.03;;;7.90;99.90;;;;;;4992634;28;20486;-38
2022/11/27 10:58:05;;;;;;;7.93;3.97;;;7.90;99.90;;;;;;4990944;28;20399;-38
2022/11/27 11:00:30;;;;;;;9.23;3.22;;;7.90;99.90;;;;;;4992108;28;20105;-39
2022/11/27 11:03:05;;;;;;;5.13;3.47;;;8.00;99.90;;;;;;4992393;28;20601;-38
2022/11/27 11:05:32;;;;;;;5.90;3.05;;;7.90;99.90;;;;;;4990882;28;20027;-37
2022/11/27 11:08:25;;;;;;;5.93;2.80;;;8.00;99.90;;;;;;4992024;28;20482;-36
2022/11/27 11:10:57;;;;;;;7.30;3.10;;;8.00;99.90;;;;;;4990321;28;20038;-36
2022/11/27 11:13:32;;;;;;;9.68;3.58;;;8.10;99.90;;;;;;4992545;28;20030;-40
2022/11/27 11:16:02;;;;;;;10.70;3.15;;;8.10;99.90;;;;;;4990372;28;20030;-41
2022/11/27 11:18:33;;;;;;;11.20;3.40;;;8.20;99.90;;;;;;4985855;28;20026;-39
2022/11/27 11:21:02;;;;;;;6.97;3.17;;;8.20;99.90;;;;;;4989658;28;20469;-37
2022/11/27 11:23:31;;;;;;;9.45;2.90;;;8.20;99.90;;;;;;4991457;28;20030;-39
2022/11/27 11:26:23;;;;;;;11.70;6.20;;;8.40;99.90;;;;;;4989768;28;20034;-38
2022/11/27 11:28:52;;;;;;;6.68;3.78;;;8.40;99.90;;;;;;4972225;28;20015;-37
2022/11/27 11:31:20;;;;;;;8.60;5.57;;;8.40;99.90;;;;;;4995660;28;20482;-39
2022/11/27 11:33:58;;;;;;;8.15;3.85;;;8.40;99.90;;;;;;4991728;28;20014;-37
2022/11/27 11:36:24;;;;;;;6.68;3.10;;;8.40;99.90;;;;;;4989887;28;20398;-36
2022/11/27 11:38:51;;;;;;;7.72;2.97;;;8.40;99.90;;;;;;4985217;28;20026;-38
2022/11/27 11:41:17;;;;;;;8.15;3.72;;;8.40;99.90;;;;;;4995166;28;20029;-37
2022/11/27 11:43:58;;;;;;;7.25;2.80;;;8.40;99.90;;;;;;4999468;28;20483;-41
2022/11/27 11:46:31;;;;;;;9.05;3.15;;;8.50;99.90;;;;;;4990964;28;20109;-36
2022/11/27 11:49:06;;;;;;;7.68;3.55;;;8.50;99.90;;;;;;4991553;28;20026;-42
2022/11/27 11:51:35;;;;;;;10.45;3.80;;;8.50;99.90;;;;;;4987029;28;20512;-35
2022/11/27 11:54:07;;;;;;;12.95;5.88;;;8.50;99.90;;;;;;4991390;28;20050;-38
2022/11/27 11:56:38;;;;;;;10.25;3.58;;;8.50;99.90;;;;;;4992101;28;20030;-49
2022/11/27 11:59:30;;;;;;;12.48;3.10;;;8.50;99.90;;;;;;4991342;28;20033;-33
2022/11/27 12:02:24;;;;;;;7.25;3.13;;;8.60;99.90;;;;;;4992119;28;20034;-38
2022/11/27 12:05:02;;;;;;;7.80;3.78;;;8.60;99.90;;;;;;4989461;28;20035;-38
2022/11/27 12:07:51;;;;;;;12.90;5.03;;;8.60;99.90;;;;;;4988090;28;20538;-38
2022/11/27 12:10:52;;;;;;;30.90;4.85;;;8.60;99.90;;;;;;4993720;28;20505;-39
2022/11/27 12:13:44;;;;;;;4.57;3.17;;;8.60;99.90;;;;;;4990153;28;20034;-37
2022/11/27 12:16:35;;;;;;;8.55;3.28;;;8.70;99.90;;;;;;4982178;28;20038;-41
2022/11/27 12:19:15;;;;;;;8.90;3.25;;;8.80;99.90;;;;;;4992037;28;20486;-39
2022/11/27 12:22:07;;;;;;;6.72;3.22;;;8.80;99.90;;;;;;4986436;28;20078;-36
2022/11/27 12:24:36;;;;;;;7.57;3.35;;;8.80;99.90;;;;;;4993019;28;20110;-37
2022/11/27 12:27:23;;;;;;;6.18;3.45;;;8.80;99.90;;;;;;4974242;28;20093;-38
2022/11/27 12:30:09;;;;;;;5.25;3.03;;;8.80;99.90;;;;;;4993389;28;20058;-41
2022/11/27 12:33:08;;;;;;;10.20;2.92;;;8.70;99.90;;;;;;4993718;28;20568;-43
2022/11/27 12:36:00;;;;;;;7.90;4.13;;;8.80;99.90;;;;;;4974887;28;20054;-40
2022/11/27 12:39:14;;;;;;;15.35;4.75;;;8.80;99.90;;;;;;4975960;28;20041;-37
2022/11/27 12:41:56;;;;;;;9.55;3.90;;;8.80;99.90;;;;;;4977988;28;20519;-38
2022/11/27 12:44:51;;;;;;;8.65;3.92;;;8.80;99.90;;;;;;4991703;28;20019;-42
2022/11/27 12:47:25;;;;;;;7.05;4.25;;;8.80;99.90;;;;;;4993926;28;20026;-45
2022/11/27 12:50:01;;;;;;;13.70;6.55;;;8.80;99.90;;;;;;4989453;28;20027;-44
2022/11/27 12:52:39;;;;;;;10.45;5.38;;;8.90;99.90;;;;;;4991206;28;20030;-44
2022/11/27 12:55:11;;;;;;;;;;;8.90;99.90;;;;;;4993588;28;20494;-43
2022/11/27 12:58:18;;;;;;;6.55;3.72;;;8.90;99.90;;;;;;4991554;28;20433;-40
2022/11/27 13:00:44;;;;;;;7.93;3.65;;;9.00;99.90;;;;;;4981545;28;20035;-39
2022/11/27 13:03:26;;;;;;;11.07;3.05;;;8.90;99.90;;;;;;4990999;28;20034;-45
2022/11/27 13:05:58;;;;;;;6.93;3.22;;;8.90;99.90;;;;;;4992350;28;20058;-43
2022/11/27 13:08:46;;;;;;;6.60;2.70;;;8.80;99.90;;;;;;4991395;28;20455;-42
2022/11/27 13:11:15;;;;;;;5.53;3.08;;;8.90;99.90;;;;;;4989535;28;20066;-44
2022/11/27 13:14:03;;;;;;;5.63;3.13;;;8.90;99.90;;;;;;4991921;28;20471;-42
2022/11/27 13:16:37;;;;;;;4.18;2.60;;;8.90;99.90;;;;;;4991400;28;20394;-55